createdAt,value
2022-10-15T00:00:24.982Z,1004.86
2022-10-15T00:01:25.017Z,1004.87
2022-10-15T00:02:24.945Z,1004.87
2022-10-15T00:03:24.949Z,1004.84
2022-10-15T00:04:24.928Z,1004.90
2022-10-15T00:05:25.682Z,1004.96
2022-10-15T00:06:24.878Z,1004.98
2022-10-15T00:07:25.141Z,1004.95
2022-10-15T00:08:24.808Z,1005.00
2022-10-15T00:09:24.768Z,1005.00
2022-10-15T00:10:24.738Z,1005.00
2022-10-15T00:11:24.774Z,1004.92
2022-10-15T00:12:24.711Z,1004.92
2022-10-15T00:13:24.711Z,1004.92
2022-10-15T00:14:24.702Z,1004.90
2022-10-15T00:15:24.676Z,1004.87
2022-10-15T00:16:24.820Z,1004.85
2022-10-15T00:17:24.982Z,1004.87
2022-10-15T00:18:24.702Z,1004.81
2022-10-15T00:19:24.765Z,1004.82
2022-10-15T00:20:25.645Z,1004.85
2022-10-15T00:21:24.818Z,1004.78
2022-10-15T00:22:24.984Z,1004.76
2022-10-15T00:23:24.725Z,1004.74
2022-10-15T00:24:24.723Z,1004.71
2022-10-15T00:25:25.466Z,1004.70
2022-10-15T00:26:24.621Z,1004.59
2022-10-15T00:27:24.748Z,1004.61
2022-10-15T00:28:24.618Z,1004.60
2022-10-15T00:29:24.622Z,1004.58
2022-10-15T00:30:24.553Z,1004.64
2022-10-15T00:31:24.633Z,1004.56
2022-10-15T00:32:25.624Z,1004.64
2022-10-15T00:33:24.450Z,1004.57
2022-10-15T00:34:24.433Z,1004.62
2022-10-15T00:35:24.582Z,1004.67
2022-10-15T00:36:24.461Z,1004.67
2022-10-15T00:37:24.401Z,1004.66
2022-10-15T00:38:24.390Z,1004.68
2022-10-15T00:39:24.367Z,1004.67
2022-10-15T00:40:24.359Z,1004.68
2022-10-15T00:41:24.368Z,1004.64
2022-10-15T00:42:24.785Z,1004.66
2022-10-15T00:43:24.307Z,1004.68
2022-10-15T00:44:24.458Z,1004.71
2022-10-15T00:45:24.359Z,1004.77
2022-10-15T00:46:24.503Z,1004.75
2022-10-15T00:47:24.485Z,1004.72
2022-10-15T00:48:24.337Z,1004.70
2022-10-15T00:49:24.314Z,1004.61
2022-10-15T00:50:24.296Z,1004.61
2022-10-15T00:51:24.310Z,1004.62
2022-10-15T00:52:24.765Z,1004.61
2022-10-15T00:53:24.278Z,1004.58
2022-10-15T00:54:24.266Z,1004.55
2022-10-15T00:55:24.258Z,1004.59
2022-10-15T00:56:24.596Z,1004.53
2022-10-15T00:57:24.299Z,1004.58
2022-10-15T00:58:24.144Z,1004.57
2022-10-15T00:59:24.143Z,1004.55
2022-10-15T01:00:24.165Z,1004.60
2022-10-15T01:01:24.176Z,1004.63
2022-10-15T01:02:24.467Z,1004.61
2022-10-15T01:03:24.073Z,1004.68
2022-10-15T01:04:24.081Z,1004.63
2022-10-15T01:05:24.024Z,1004.64
2022-10-15T01:06:24.045Z,1004.56
2022-10-15T01:07:24.005Z,1004.55
2022-10-15T01:08:23.997Z,1004.58
2022-10-15T01:09:23.980Z,1004.64
2022-10-15T01:10:23.953Z,1004.68
2022-10-15T01:11:23.978Z,1004.70
2022-10-15T01:12:24.168Z,1004.68
2022-10-15T01:13:23.936Z,1004.70
2022-10-15T01:14:23.954Z,1004.71
2022-10-15T01:15:23.956Z,1004.69
2022-10-15T01:16:24.138Z,1004.66
2022-10-15T01:17:24.288Z,1004.67
2022-10-15T01:18:24.826Z,1004.69
2022-10-15T01:19:24.067Z,1004.66
2022-10-15T01:20:24.000Z,1004.67
2022-10-15T01:21:24.011Z,1004.66
2022-10-15T01:22:23.904Z,1004.67
2022-10-15T01:23:25.905Z,1004.70
2022-10-15T01:24:24.008Z,1004.70
2022-10-15T01:25:23.929Z,1004.70
2022-10-15T01:26:24.243Z,1004.68
2022-10-15T01:27:24.088Z,1004.64
2022-10-15T01:28:23.881Z,1004.72
2022-10-15T01:29:23.765Z,1004.76
2022-10-15T01:30:23.762Z,1004.75
2022-10-15T01:31:23.791Z,1004.75
2022-10-15T01:32:23.683Z,1004.76
2022-10-15T01:33:23.682Z,1004.75
2022-10-15T01:34:23.645Z,1004.73
2022-10-15T01:35:23.633Z,1004.81
2022-10-15T01:36:23.631Z,1004.79
2022-10-15T01:37:23.857Z,1004.71
2022-10-15T01:38:23.604Z,1004.71
2022-10-15T01:39:23.607Z,1004.76
2022-10-15T01:40:23.569Z,1004.75
2022-10-15T01:41:23.594Z,1004.67
2022-10-15T01:42:23.563Z,1004.74
2022-10-15T01:43:23.617Z,1004.78
2022-10-15T01:44:23.607Z,1004.78
2022-10-15T01:45:23.584Z,1004.75
2022-10-15T01:46:24.471Z,1004.74
2022-10-15T01:47:25.936Z,1004.68
2022-10-15T01:48:23.701Z,1004.75
2022-10-15T01:49:23.501Z,1004.76
2022-10-15T01:50:23.625Z,1004.77
2022-10-15T01:51:23.537Z,1004.79
2022-10-15T01:52:23.617Z,1004.74
2022-10-15T01:53:23.586Z,1004.76
2022-10-15T01:54:23.537Z,1004.68
2022-10-15T01:55:23.461Z,1004.69
2022-10-15T01:56:23.679Z,1004.67
2022-10-15T01:57:24.756Z,1004.70
2022-10-15T01:58:23.349Z,1004.67
2022-10-15T01:59:23.454Z,1004.64
2022-10-15T02:00:23.319Z,1004.62
2022-10-15T02:01:23.373Z,1004.64
2022-10-15T02:02:23.467Z,1004.62
2022-10-15T02:03:23.304Z,1004.58
2022-10-15T02:04:23.276Z,1004.60
2022-10-15T02:05:23.249Z,1004.60
2022-10-15T02:06:23.262Z,1004.56
2022-10-15T02:07:23.230Z,1004.55
2022-10-15T02:08:23.228Z,1004.54
2022-10-15T02:09:23.188Z,1004.52
2022-10-15T02:10:23.182Z,1004.50
2022-10-15T02:11:23.186Z,1004.44
2022-10-15T02:12:23.371Z,1004.48
2022-10-15T02:13:23.147Z,1004.50
2022-10-15T02:14:23.134Z,1004.50
2022-10-15T02:15:23.130Z,1004.50
2022-10-15T02:16:23.130Z,1004.47
2022-10-15T02:17:23.087Z,1004.46
2022-10-15T02:18:23.081Z,1004.42
2022-10-15T02:19:23.056Z,1004.47
2022-10-15T02:20:23.060Z,1004.50
2022-10-15T02:21:23.070Z,1004.50
2022-10-15T02:22:23.333Z,1004.53
2022-10-15T02:23:23.038Z,1004.56
2022-10-15T02:24:23.015Z,1004.49
2022-10-15T02:25:23.014Z,1004.54
2022-10-15T02:26:23.007Z,1004.48
2022-10-15T02:27:22.989Z,1004.53
2022-10-15T02:28:22.983Z,1004.51
2022-10-15T02:29:22.951Z,1004.54
2022-10-15T02:30:22.922Z,1004.55
2022-10-15T02:32:19.981Z,1004.55
2022-10-15T02:33:19.914Z,1004.67
2022-10-15T02:34:19.915Z,1004.61
2022-10-15T02:35:19.873Z,1004.65
2022-10-15T02:36:19.896Z,1004.59
2022-10-15T02:37:19.867Z,1004.64
2022-10-15T02:38:19.858Z,1004.62
2022-10-15T02:39:19.846Z,1004.65
2022-10-15T02:40:19.814Z,1004.58
2022-10-15T02:41:19.823Z,1004.62
2022-10-15T02:42:19.826Z,1004.62
2022-10-15T02:43:19.793Z,1004.64
2022-10-15T02:44:19.790Z,1004.57
2022-10-15T02:45:19.743Z,1004.57
2022-10-15T02:46:19.766Z,1004.56
2022-10-15T02:47:19.782Z,1004.60
2022-10-15T02:48:19.736Z,1004.59
2022-10-15T02:49:19.714Z,1004.57
2022-10-15T02:50:19.708Z,1004.57
2022-10-15T02:51:19.706Z,1004.53
2022-10-15T02:52:19.663Z,1004.58
2022-10-15T02:53:19.649Z,1004.56
2022-10-15T02:54:19.656Z,1004.63
2022-10-15T02:55:19.644Z,1004.68
2022-10-15T02:56:19.709Z,1004.71
2022-10-15T02:57:19.627Z,1004.72
2022-10-15T02:58:19.580Z,1004.75
2022-10-15T02:59:19.587Z,1004.72
2022-10-15T03:00:19.565Z,1004.75
2022-10-15T03:01:19.601Z,1004.77
2022-10-15T03:02:19.548Z,1004.79
2022-10-15T03:03:19.561Z,1004.71
2022-10-15T03:04:19.511Z,1004.66
2022-10-15T03:05:19.564Z,1004.64
2022-10-15T03:06:19.507Z,1004.59
2022-10-15T03:07:19.474Z,1004.57
2022-10-15T03:08:19.477Z,1004.59
2022-10-15T03:09:19.449Z,1004.52
2022-10-15T03:10:19.439Z,1004.52
2022-10-15T03:11:19.454Z,1004.54
2022-10-15T03:12:19.422Z,1004.53
2022-10-15T03:13:19.402Z,1004.51
2022-10-15T03:14:19.427Z,1004.50
2022-10-15T03:15:19.374Z,1004.53
2022-10-15T03:16:19.366Z,1004.53
2022-10-15T03:17:19.372Z,1004.58
2022-10-15T03:18:19.327Z,1004.50
2022-10-15T03:19:19.333Z,1004.50
2022-10-15T03:20:19.305Z,1004.46
2022-10-15T03:21:19.300Z,1004.43
2022-10-15T03:22:19.288Z,1004.45
2022-10-15T03:23:19.281Z,1004.49
2022-10-15T03:24:19.252Z,1004.48
2022-10-15T03:25:19.230Z,1004.49
2022-10-15T03:26:19.210Z,1004.44
2022-10-15T03:27:19.238Z,1004.45
2022-10-15T03:28:19.257Z,1004.32
2022-10-15T03:29:19.193Z,1004.34
2022-10-15T03:30:19.187Z,1004.29
2022-10-15T03:31:19.163Z,1004.34
2022-10-15T03:32:19.169Z,1004.47
2022-10-15T03:33:20.859Z,1004.42
2022-10-15T03:34:19.129Z,1004.46
2022-10-15T03:35:19.095Z,1004.44
2022-10-15T03:36:19.122Z,1004.41
2022-10-15T03:37:19.099Z,1004.42
2022-10-15T03:38:19.059Z,1004.37
2022-10-15T03:39:19.054Z,1004.37
2022-10-15T03:40:19.062Z,1004.41
2022-10-15T03:41:19.026Z,1004.43
2022-10-15T03:42:19.032Z,1004.40
2022-10-15T03:43:19.013Z,1004.35
2022-10-15T03:44:18.985Z,1004.28
2022-10-15T03:45:18.978Z,1004.30
2022-10-15T03:46:18.971Z,1004.32
2022-10-15T03:47:18.980Z,1004.28
2022-10-15T03:48:18.939Z,1004.28
2022-10-15T03:49:18.915Z,1004.30
2022-10-15T03:50:18.923Z,1004.27
2022-10-15T03:51:22.786Z,1004.28
2022-10-15T03:52:19.894Z,1004.31
2022-10-15T03:53:18.879Z,1004.30
2022-10-15T03:54:18.861Z,1004.33
2022-10-15T03:55:18.834Z,1004.36
2022-10-15T03:56:18.843Z,1004.31
2022-10-15T03:57:18.828Z,1004.32
2022-10-15T03:58:18.864Z,1004.37
2022-10-15T03:59:18.810Z,1004.37
2022-10-15T04:00:18.778Z,1004.35
2022-10-15T04:01:18.848Z,1004.33
2022-10-15T04:02:18.767Z,1004.37
2022-10-15T04:03:18.727Z,1004.36
2022-10-15T04:04:18.745Z,1004.40
2022-10-15T04:05:18.718Z,1004.43
2022-10-15T04:06:18.706Z,1004.38
2022-10-15T04:07:18.693Z,1004.45
2022-10-15T04:08:18.668Z,1004.43
2022-10-15T04:09:18.652Z,1004.49
2022-10-15T04:10:18.679Z,1004.44
2022-10-15T04:11:18.623Z,1004.47
2022-10-15T04:12:18.633Z,1004.47
2022-10-15T04:13:18.611Z,1004.50
2022-10-15T04:14:18.595Z,1004.56
2022-10-15T04:15:18.587Z,1004.52
2022-10-15T04:16:18.565Z,1004.51
2022-10-15T04:17:18.606Z,1004.51
2022-10-15T04:18:18.533Z,1004.56
2022-10-15T04:19:18.539Z,1004.50
2022-10-15T04:20:18.506Z,1004.57
2022-10-15T04:21:18.502Z,1004.51
2022-10-15T04:22:18.494Z,1004.53
2022-10-15T04:23:18.474Z,1004.49
2022-10-15T04:24:18.473Z,1004.51
2022-10-15T04:25:18.466Z,1004.47
2022-10-15T04:26:18.419Z,1004.44
2022-10-15T04:27:18.476Z,1004.52
2022-10-15T04:28:18.482Z,1004.58
2022-10-15T04:29:18.412Z,1004.60
2022-10-15T04:30:18.404Z,1004.68
2022-10-15T04:31:18.361Z,1004.63
2022-10-15T04:32:18.351Z,1004.64
2022-10-15T04:33:18.374Z,1004.63
2022-10-15T04:34:18.335Z,1004.63
2022-10-15T04:35:18.315Z,1004.62
2022-10-15T04:37:18.307Z,1004.55
2022-10-15T04:38:18.287Z,1004.50
2022-10-15T04:39:18.264Z,1004.53
2022-10-15T04:40:18.240Z,1004.52
2022-10-15T04:41:18.261Z,1004.47
2022-10-15T04:42:18.243Z,1004.44
2022-10-15T04:43:18.220Z,1004.45
2022-10-15T04:44:18.180Z,1004.38
2022-10-15T04:45:18.223Z,1004.35
2022-10-15T04:46:18.162Z,1004.35
2022-10-15T04:47:18.183Z,1004.27
2022-10-15T04:48:18.148Z,1004.29
2022-10-15T04:49:18.126Z,1004.31
2022-10-15T04:50:18.126Z,1004.31
2022-10-15T04:51:18.103Z,1004.27
2022-10-15T04:52:18.113Z,1004.32
2022-10-15T04:53:18.065Z,1004.31
2022-10-15T04:54:18.093Z,1004.34
2022-10-15T04:55:18.072Z,1004.32
2022-10-15T04:56:18.032Z,1004.36
2022-10-15T04:57:18.042Z,1004.28
2022-10-15T04:58:18.003Z,1004.31
2022-10-15T04:59:18.001Z,1004.39
2022-10-15T05:00:17.996Z,1004.32
2022-10-15T05:01:17.957Z,1004.41
2022-10-15T05:02:17.993Z,1004.33
2022-10-15T05:03:17.942Z,1004.41
2022-10-15T05:04:17.940Z,1004.44
2022-10-15T05:05:17.898Z,1004.51
2022-10-15T05:06:17.901Z,1004.41
2022-10-15T05:07:17.903Z,1004.46
2022-10-15T05:08:17.868Z,1004.41
2022-10-15T05:09:17.878Z,1004.39
2022-10-15T05:10:17.836Z,1004.46
2022-10-15T05:11:17.854Z,1004.42
2022-10-15T05:12:17.841Z,1004.47
2022-10-15T05:13:17.796Z,1004.39
2022-10-15T05:14:17.820Z,1004.49
2022-10-15T05:15:17.797Z,1004.53
2022-10-15T05:16:17.779Z,1004.53
2022-10-15T05:17:17.794Z,1004.53
2022-10-15T05:18:17.748Z,1004.56
2022-10-15T05:19:17.748Z,1004.57
2022-10-15T05:20:17.722Z,1004.59
2022-10-15T05:21:17.708Z,1004.57
2022-10-15T05:22:17.719Z,1004.58
2022-10-15T05:23:17.733Z,1004.55
2022-10-15T05:24:17.697Z,1004.56
2022-10-15T05:25:17.656Z,1004.56
2022-10-15T05:26:17.636Z,1004.51
2022-10-15T05:27:17.645Z,1004.59
2022-10-15T05:28:17.658Z,1004.57
2022-10-15T05:29:17.615Z,1004.53
2022-10-15T05:30:17.609Z,1004.55
2022-10-15T05:31:19.070Z,1004.53
2022-10-15T05:32:17.603Z,1004.53
2022-10-15T05:33:17.559Z,1004.53
2022-10-15T05:34:17.551Z,1004.51
2022-10-15T05:35:17.515Z,1004.50
2022-10-15T05:36:17.520Z,1004.55
2022-10-15T05:37:17.522Z,1004.55
2022-10-15T05:38:17.474Z,1004.51
2022-10-15T05:39:17.464Z,1004.52
2022-10-15T05:40:21.117Z,1004.54
2022-10-15T05:41:17.446Z,1004.60
2022-10-15T05:42:17.437Z,1004.48
2022-10-15T05:43:17.418Z,1004.50
2022-10-15T05:44:17.416Z,1004.52
2022-10-15T05:45:17.380Z,1004.56
2022-10-15T05:46:17.386Z,1004.52
2022-10-15T05:47:17.380Z,1004.54
2022-10-15T05:48:17.353Z,1004.58
2022-10-15T05:49:17.341Z,1004.54
2022-10-15T05:50:17.322Z,1004.61
2022-10-15T05:51:17.315Z,1004.62
2022-10-15T05:52:17.302Z,1004.57
2022-10-15T05:53:17.298Z,1004.52
2022-10-15T05:54:17.271Z,1004.61
2022-10-15T05:55:17.294Z,1004.62
2022-10-15T05:56:17.270Z,1004.55
2022-10-15T05:57:17.243Z,1004.56
2022-10-15T05:58:17.225Z,1004.61
2022-10-15T05:59:17.222Z,1004.56
2022-10-15T06:00:17.174Z,1004.57
2022-10-15T06:01:17.199Z,1004.56
2022-10-15T06:02:17.291Z,1004.50
2022-10-15T06:03:17.149Z,1004.60
2022-10-15T06:04:17.134Z,1004.58
2022-10-15T06:05:17.144Z,1004.56
2022-10-15T06:06:17.174Z,1004.58
2022-10-15T06:07:17.120Z,1004.62
2022-10-15T06:08:17.079Z,1004.52
2022-10-15T06:09:17.083Z,1004.57
2022-10-15T06:10:17.056Z,1004.55
2022-10-15T06:11:17.050Z,1004.56
2022-10-15T06:12:17.046Z,1004.56
2022-10-15T06:13:17.039Z,1004.54
2022-10-15T06:14:17.002Z,1004.57
2022-10-15T06:15:17.016Z,1004.58
2022-10-15T06:16:20.808Z,1004.67
2022-10-15T06:17:17.983Z,1004.66
2022-10-15T06:18:16.965Z,1004.66
2022-10-15T06:19:16.938Z,1004.60
2022-10-15T06:20:16.920Z,1004.69
2022-10-15T06:21:16.909Z,1004.76
2022-10-15T06:22:17.043Z,1004.78
2022-10-15T06:23:16.879Z,1004.71
2022-10-15T06:24:16.904Z,1004.74
2022-10-15T06:25:16.851Z,1004.75
2022-10-15T06:26:16.849Z,1004.76
2022-10-15T06:27:16.854Z,1004.71
2022-10-15T06:28:16.849Z,1004.72
2022-10-15T06:29:16.825Z,1004.73
2022-10-15T06:30:16.792Z,1004.70
2022-10-15T06:31:16.838Z,1004.71
2022-10-15T06:32:16.782Z,1004.78
2022-10-15T06:33:16.752Z,1004.81
2022-10-15T06:34:16.744Z,1004.80
2022-10-15T06:35:16.719Z,1004.83
2022-10-15T06:36:16.730Z,1004.85
2022-10-15T06:37:16.731Z,1004.84
2022-10-15T06:38:16.710Z,1004.84
2022-10-15T06:39:16.681Z,1004.87
2022-10-15T06:40:16.666Z,1004.86
2022-10-15T06:41:16.640Z,1004.84
2022-10-15T06:42:16.643Z,1004.91
2022-10-15T06:43:16.626Z,1004.89
2022-10-15T06:44:16.624Z,1004.90
2022-10-15T06:45:19.431Z,1004.83
2022-10-15T06:46:17.578Z,1004.89
2022-10-15T06:47:16.590Z,1004.87
2022-10-15T06:48:16.560Z,1004.81
2022-10-15T06:49:16.545Z,1004.80
2022-10-15T06:50:16.537Z,1004.81
2022-10-15T06:51:16.522Z,1004.83
2022-10-15T06:52:16.519Z,1004.81
2022-10-15T06:53:16.497Z,1004.89
2022-10-15T06:54:16.477Z,1004.87
2022-10-15T06:55:16.469Z,1004.86
2022-10-15T06:56:16.439Z,1004.83
2022-10-15T06:57:16.446Z,1004.88
2022-10-15T06:58:16.439Z,1004.90
2022-10-15T06:59:16.419Z,1004.88
2022-10-15T07:00:16.414Z,1004.92
2022-10-15T07:01:16.375Z,1004.92
2022-10-15T07:02:16.390Z,1004.97
2022-10-15T07:03:16.370Z,1004.93
2022-10-15T07:04:16.334Z,1004.96
2022-10-15T07:05:16.340Z,1004.97
2022-10-15T07:06:16.327Z,1004.93
2022-10-15T07:07:16.304Z,1005.00
2022-10-15T07:08:19.199Z,1004.97
2022-10-15T07:09:16.294Z,1004.94
2022-10-15T07:10:16.276Z,1004.95
2022-10-15T07:11:16.258Z,1004.89
2022-10-15T07:12:16.267Z,1004.91
2022-10-15T07:13:16.238Z,1004.91
2022-10-15T07:14:16.216Z,1004.92
2022-10-15T07:15:16.194Z,1004.92
2022-10-15T07:16:16.195Z,1004.88
2022-10-15T07:17:16.211Z,1004.87
2022-10-15T07:18:16.175Z,1004.88
2022-10-15T07:19:16.154Z,1004.87
2022-10-15T07:20:20.153Z,1004.81
2022-10-15T07:21:17.115Z,1004.85
2022-10-15T07:22:16.118Z,1004.87
2022-10-15T07:23:16.097Z,1004.85
2022-10-15T07:24:16.083Z,1004.87
2022-10-15T07:25:16.052Z,1004.87
2022-10-15T07:26:16.042Z,1004.88
2022-10-15T07:27:19.519Z,1004.88
2022-10-15T07:28:16.071Z,1004.88
2022-10-15T07:29:16.026Z,1004.90
2022-10-15T07:30:16.095Z,1004.93
2022-10-15T07:31:15.982Z,1004.93
2022-10-15T07:32:15.994Z,1004.94
2022-10-15T07:33:15.974Z,1004.92
2022-10-15T07:34:15.956Z,1004.90
2022-10-15T07:35:15.941Z,1004.85
2022-10-15T07:36:15.922Z,1004.88
2022-10-15T07:37:15.963Z,1004.87
2022-10-15T07:38:15.915Z,1004.91
2022-10-15T07:39:15.902Z,1004.90
2022-10-15T07:40:15.888Z,1004.91
2022-10-15T07:41:15.872Z,1004.92
2022-10-15T07:42:15.868Z,1004.95
2022-10-15T07:43:15.822Z,1004.90
2022-10-15T07:44:15.844Z,1004.93
2022-10-15T07:45:15.799Z,1004.93
2022-10-15T07:46:15.805Z,1004.91
2022-10-15T07:47:15.795Z,1004.85
2022-10-15T07:48:15.778Z,1004.95
2022-10-15T07:49:15.740Z,1004.92
2022-10-15T07:50:15.754Z,1004.86
2022-10-15T07:51:15.724Z,1004.83
2022-10-15T07:52:15.743Z,1004.82
2022-10-15T07:53:18.093Z,1004.74
2022-10-15T07:54:15.693Z,1004.77
2022-10-15T07:55:15.671Z,1004.73
2022-10-15T07:56:15.669Z,1004.71
2022-10-15T07:57:17.534Z,1004.67
2022-10-15T07:58:15.644Z,1004.70
2022-10-15T07:59:15.630Z,1004.70
2022-10-15T08:00:15.632Z,1004.74
2022-10-15T08:01:15.589Z,1004.71
2022-10-15T08:02:15.610Z,1004.68
2022-10-15T08:03:15.587Z,1004.66
2022-10-15T08:04:15.573Z,1004.64
2022-10-15T08:05:15.552Z,1004.68
2022-10-15T08:06:15.518Z,1004.57
2022-10-15T08:07:15.522Z,1004.57
2022-10-15T08:08:15.520Z,1004.51
2022-10-15T08:09:15.480Z,1004.48
2022-10-15T08:10:15.488Z,1004.55
2022-10-15T08:11:15.486Z,1004.51
2022-10-15T08:12:15.466Z,1004.54
2022-10-15T08:13:15.448Z,1004.54
2022-10-15T08:14:15.417Z,1004.54
2022-10-15T08:15:15.430Z,1004.57
2022-10-15T08:16:15.402Z,1004.57
2022-10-15T08:17:15.387Z,1004.52
2022-10-15T08:18:15.380Z,1004.53
2022-10-15T08:19:15.375Z,1004.53
2022-10-15T08:20:15.337Z,1004.55
2022-10-15T08:21:15.327Z,1004.50
2022-10-15T08:22:15.328Z,1004.57
2022-10-15T08:23:15.300Z,1004.55
2022-10-15T08:24:15.303Z,1004.57
2022-10-15T08:25:15.276Z,1004.57
2022-10-15T08:26:15.270Z,1004.55
2022-10-15T08:27:15.283Z,1004.59
2022-10-15T08:28:15.241Z,1004.58
2022-10-15T08:29:15.234Z,1004.62
2022-10-15T08:30:15.229Z,1004.55
2022-10-15T08:31:15.188Z,1004.53
2022-10-15T08:32:15.189Z,1004.52
2022-10-15T08:33:15.195Z,1004.44
2022-10-15T08:34:16.023Z,1004.44
2022-10-15T08:35:15.136Z,1004.45
2022-10-15T08:36:15.142Z,1004.45
2022-10-15T08:38:19.021Z,1004.47
2022-10-15T08:41:15.843Z,1004.41
2022-10-15T08:42:15.580Z,1004.40
2022-10-15T08:45:32.781Z,1004.39
2022-10-15T08:46:32.655Z,1004.43
2022-10-15T08:47:32.649Z,1004.41
2022-10-15T08:48:32.803Z,1004.37
2022-10-15T08:49:32.589Z,1004.36
2022-10-15T08:50:32.590Z,1004.44
2022-10-15T08:51:32.600Z,1004.42
2022-10-15T08:52:32.580Z,1004.39
2022-10-15T08:53:32.526Z,1004.39
2022-10-15T08:54:32.515Z,1004.47
2022-10-15T08:55:32.529Z,1004.46
2022-10-15T08:56:32.509Z,1004.43
2022-10-15T08:57:32.520Z,1004.37
2022-10-15T08:58:34.725Z,1004.36
2022-10-15T08:59:32.459Z,1004.37
2022-10-15T09:00:32.489Z,1004.31
2022-10-15T09:01:32.457Z,1004.31
2022-10-15T09:02:32.500Z,1004.33
2022-10-15T09:03:32.424Z,1004.38
2022-10-15T09:04:32.389Z,1004.36
2022-10-15T09:05:32.396Z,1004.36
2022-10-15T09:06:32.363Z,1004.32
2022-10-15T09:07:32.393Z,1004.35
2022-10-15T09:08:32.389Z,1004.33
2022-10-15T09:09:32.327Z,1004.33
2022-10-15T09:10:32.314Z,1004.35
2022-10-15T09:11:32.338Z,1004.36
2022-10-15T09:12:32.288Z,1004.37
2022-10-15T09:13:32.386Z,1004.42
2022-10-15T09:14:32.257Z,1004.37
2022-10-15T09:15:32.267Z,1004.36
2022-10-15T09:16:32.251Z,1004.36
2022-10-15T09:17:32.223Z,1004.36
2022-10-15T09:18:32.228Z,1004.34
2022-10-15T09:19:32.197Z,1004.36
2022-10-15T09:20:32.202Z,1004.33
2022-10-15T09:21:32.173Z,1004.32
2022-10-15T09:22:32.164Z,1004.25
2022-10-15T09:23:32.168Z,1004.26
2022-10-15T09:24:32.314Z,1004.29
2022-10-15T09:25:32.201Z,1004.27
2022-10-15T09:26:32.254Z,1004.27
2022-10-15T09:27:32.372Z,1004.28
2022-10-15T09:28:32.297Z,1004.26
2022-10-15T09:29:32.158Z,1004.20
2022-10-15T09:30:32.300Z,1004.25
2022-10-15T09:31:32.226Z,1004.25
2022-10-15T09:32:32.256Z,1004.22
2022-10-15T09:33:32.438Z,1004.23
2022-10-15T09:35:44.470Z,1004.29
2022-10-15T09:36:54.530Z,1004.18
2022-10-15T09:37:44.221Z,1004.21
2022-10-15T09:38:44.244Z,1004.16
2022-10-15T09:39:45.256Z,1004.18
2022-10-15T09:40:44.187Z,1004.16
2022-10-15T09:41:44.179Z,1004.19
2022-10-15T09:47:33.380Z,1004.12
2022-10-15T09:48:34.173Z,1004.13
2022-10-15T09:49:36.397Z,1004.08
2022-10-15T09:50:33.136Z,1004.07
2022-10-15T09:51:33.085Z,1004.08
2022-10-15T09:52:33.393Z,1004.03
2022-10-15T09:53:33.099Z,1004.07
2022-10-15T09:54:33.085Z,1004.08
2022-10-15T09:55:33.062Z,1004.04
2022-10-15T09:56:33.055Z,1004.04
2022-10-15T09:57:33.011Z,1004.05
2022-10-15T09:58:33.005Z,1004.11
2022-10-15T09:59:33.070Z,1003.99
2022-10-15T10:00:32.996Z,1004.01
2022-10-15T10:01:32.969Z,1004.04
2022-10-15T10:02:33.022Z,1004.05
2022-10-15T10:03:32.961Z,1004.11
2022-10-15T10:04:33.081Z,1004.06
2022-10-15T10:05:32.914Z,1004.03
2022-10-15T10:06:32.920Z,1004.01
2022-10-15T10:07:32.937Z,1004.06
2022-10-15T10:08:32.875Z,1004.00
2022-10-15T10:09:32.931Z,1003.95
2022-10-15T10:10:32.853Z,1004.01
2022-10-15T10:11:32.832Z,1004.02
2022-10-15T10:12:32.862Z,1003.87
2022-10-15T10:13:32.807Z,1003.93
2022-10-15T10:14:32.864Z,1003.88
2022-10-15T10:15:32.769Z,1003.88
2022-10-15T10:16:32.821Z,1003.93
2022-10-15T10:17:32.821Z,1003.90
2022-10-15T10:18:32.755Z,1003.88
2022-10-15T10:19:32.830Z,1003.86
2022-10-15T10:20:32.727Z,1003.86
2022-10-15T10:21:32.722Z,1003.83
2022-10-15T10:22:32.742Z,1003.86
2022-10-15T10:23:32.680Z,1003.85
2022-10-15T10:24:32.668Z,1003.84
2022-10-15T10:25:32.669Z,1003.80
2022-10-15T10:26:32.649Z,1003.91
2022-10-15T10:27:32.630Z,1003.90
2022-10-15T10:28:32.663Z,1003.90
2022-10-15T10:29:34.496Z,1003.91
2022-10-15T10:30:32.601Z,1003.85
2022-10-15T10:31:32.581Z,1003.87
2022-10-15T10:32:32.608Z,1003.88
2022-10-15T10:33:32.534Z,1003.85
2022-10-15T10:34:43.262Z,1003.81
2022-10-15T10:35:32.516Z,1003.82
2022-10-15T10:36:32.521Z,1003.84
2022-10-15T10:37:32.531Z,1003.85
2022-10-15T10:38:32.545Z,1003.83
2022-10-15T10:39:32.490Z,1003.83
2022-10-15T10:40:32.491Z,1003.77
2022-10-15T10:41:32.461Z,1003.76
2022-10-15T10:42:32.450Z,1003.79
2022-10-15T10:43:36.773Z,1003.82
2022-10-15T10:44:33.387Z,1003.81
2022-10-15T10:45:32.378Z,1003.82
2022-10-15T10:46:32.378Z,1003.76
2022-10-15T10:47:32.386Z,1003.75
2022-10-15T10:48:32.357Z,1003.79
2022-10-15T10:49:32.457Z,1003.76
2022-10-15T10:50:32.330Z,1003.72
2022-10-15T10:51:32.305Z,1003.74
2022-10-15T10:52:32.359Z,1003.75
2022-10-15T10:53:32.289Z,1003.70
2022-10-15T10:55:29.691Z,1003.67
2022-10-15T10:56:29.576Z,1003.64
2022-10-15T10:57:29.595Z,1003.69
2022-10-15T10:58:29.557Z,1003.66
2022-10-15T10:59:29.580Z,1003.71
2022-10-15T11:00:29.541Z,1003.72
2022-10-15T11:01:29.517Z,1003.70
2022-10-15T11:02:29.617Z,1003.69
2022-10-15T11:03:29.582Z,1003.66
2022-10-15T11:04:29.507Z,1003.66
2022-10-15T11:05:29.471Z,1003.63
2022-10-15T11:06:29.452Z,1003.65
2022-10-15T11:07:29.438Z,1003.65
2022-10-15T11:08:29.442Z,1003.67
2022-10-15T11:09:29.434Z,1003.65
2022-10-15T11:10:29.422Z,1003.65
2022-10-15T11:11:29.383Z,1003.61
2022-10-15T11:12:29.381Z,1003.58
2022-10-15T11:13:31.350Z,1003.63
2022-10-15T11:14:29.340Z,1003.61
2022-10-15T11:15:29.333Z,1003.57
2022-10-15T11:16:29.391Z,1003.58
2022-10-15T11:17:29.352Z,1003.59
2022-10-15T11:18:30.067Z,1003.59
2022-10-15T11:20:05.676Z,1003.55
2022-10-15T11:20:46.190Z,1003.55
2022-10-15T11:21:30.272Z,1003.54
2022-10-15T11:22:29.250Z,1003.48
2022-10-15T11:23:29.293Z,1003.58
2022-10-15T11:24:33.544Z,1003.50
2022-10-15T11:25:30.241Z,1003.49
2022-10-15T11:26:34.105Z,1003.44
2022-10-15T11:27:30.209Z,1003.45
2022-10-15T11:28:29.227Z,1003.50
2022-10-15T11:29:29.189Z,1003.46
2022-10-15T11:30:29.151Z,1003.49
2022-10-15T11:31:29.167Z,1003.41
2022-10-15T11:32:42.138Z,1003.45
2022-10-15T11:33:30.118Z,1003.36
2022-10-15T11:34:29.108Z,1003.45
2022-10-15T11:35:51.729Z,1003.42
2022-10-15T11:36:30.078Z,1003.45
2022-10-15T11:37:29.102Z,1003.40
2022-10-15T11:38:29.050Z,1003.37
2022-10-15T11:39:29.031Z,1003.38
2022-10-15T11:40:29.011Z,1003.35
2022-10-15T11:41:29.008Z,1003.33
2022-10-15T11:42:28.996Z,1003.33
2022-10-15T11:43:29.018Z,1003.25
2022-10-15T11:44:28.979Z,1003.27
2022-10-15T11:45:28.962Z,1003.35
2022-10-15T11:46:28.949Z,1003.26
2022-10-15T11:47:28.922Z,1003.34
2022-10-15T11:48:29.909Z,1003.35
2022-10-15T11:49:28.966Z,1003.33
2022-10-15T11:50:28.885Z,1003.33
2022-10-15T11:51:28.891Z,1003.38
2022-10-15T11:52:28.880Z,1003.34
2022-10-15T11:53:28.982Z,1003.35
2022-10-15T11:54:28.829Z,1003.28
2022-10-15T11:55:28.810Z,1003.37
2022-10-15T11:56:28.813Z,1003.37
2022-10-15T11:57:28.833Z,1003.40
2022-10-15T11:58:28.834Z,1003.29
2022-10-15T11:59:28.759Z,1003.30
2022-10-15T12:00:28.779Z,1003.31
2022-10-15T12:01:28.749Z,1003.26
2022-10-15T12:02:28.745Z,1003.31
2022-10-15T12:03:28.740Z,1003.29
2022-10-15T12:04:31.793Z,1003.21
2022-10-15T12:05:28.716Z,1003.25
2022-10-15T12:06:28.669Z,1003.23
2022-10-15T12:07:28.687Z,1003.21
2022-10-15T12:08:28.665Z,1003.19
2022-10-15T12:09:28.638Z,1003.24
2022-10-15T12:10:28.617Z,1003.23
2022-10-15T12:11:28.610Z,1003.19
2022-10-15T12:12:28.597Z,1003.14
2022-10-15T12:13:28.607Z,1003.18
2022-10-15T12:14:28.578Z,1003.16
2022-10-15T12:15:28.560Z,1003.09
2022-10-15T12:16:28.552Z,1003.15
2022-10-15T12:17:28.541Z,1003.09
2022-10-15T12:18:28.548Z,1003.12
2022-10-15T12:19:28.528Z,1003.05